Wilmington, DE (19809)

4:14 AM EDT on October 22, 2014 (GMT -0400)
Woodbrook | Change Station
CLOSE
Current Station
Personal Weather Station
Location: Wilmington, DE
Elevation: 325 ft
Nearby Weather Stations

Elev 325 ft 39.79 °N, 75.56 °W | Updated 3 minutes ago

Rain
Rain
54.0 °F
Feels Like 54.0 °F
N
2.7
Wind Variable Wind from WSW

Today
High -- | Low -- °F
--% Chance of Precip.
Yesterday
High -- | Low -- °F
Precip. -- in
7:19 AM 6:12 PM
Waning Crescent, 3% visible
Pressure 29.83 in
Visibility 9.0 miles
Clouds Mostly Cloudy 1500 ft
Overcast 5500 ft
Dew Point 52 °F
Humidity 94%
Rainfall 0.00 in
Snow Depth Not available.
UV 0 out of 12
Pollen .50 out of 12
Air Quality Not available.
Flu Activity Sporadic
SPECI KILG 220758Z 01012KT 9SM RA BKN015 OVC055 13/11 A2983 RMK AO2 LTG DSNT SW P0001 T01280111

More Conditions Fewer Conditions

Pressure 29.83 in
Visibility 9.0 miles
Clouds Mostly Cloudy 1500 ft
Overcast 5500 ft
Dew Point 52 °F
Humidity 94%
Rainfall 0.00 in
Snow Depth Not available.
UV 0 out of 12
Pollen .50 out of 12
Air Quality Not available.
Flu Activity Sporadic
SPECI KILG 220758Z 01012KT 9SM RA BKN015 OVC055 13/11 A2983 RMK AO2 LTG DSNT SW P0001 T01280111

More Conditions Fewer Conditions

10-Day Weather Forecast

Almanac

Astronomy

Oct. 22, 2014 Rise Set
Actual Time 7:19 AM EDT 6:12 PM EDT
Civil Twilight 6:52 AM EDT 6:40 PM EDT
Nautical Twilight 6:20 AM EDT 7:11 PM EDT
Astronomical Twilight 5:49 AM EDT 7:43 PM EDT
Moon 5:59 AM EDT 5:38 PM EDT
Length of Visible Light 11h 48m
Length of Day
10h 53m
Tomorrow will be 2m 26s shorter.
Waning Crescent, 3% of the Moon is Illuminated
Today
Waning Crescent
Oct 23
New
Oct 30
First Quarter
Nov 6
Full
Nov 14
Last Quarter

Today's Extremes

State Highs State Lows

Community

WunderPhotos

Upload Photos

1,763,889 photos uploaded!

Nearby

Snow Depth

Station Depth Elevation
No new snow has been reported.

Earthquake Activity

City Distance Mag. Time & Date
No recent earthquake activity has been reported nearby.
Minimum magnitude displayed is 2.5.

Coastal Water Temperatures

Place Temperature
Cape May, NJ 66.9 °F
Reedy Point, DE 64.0 °F
Delaware City, DE 64.0 °F
Marcus Hook, PA 64.9 °F

Nearby Weather Stations